createdAt,value
2019-05-15T00:01:58.425Z,5.10
2019-05-15T00:04:29.567Z,5.20
2019-05-15T00:07:00.667Z,6.17
2019-05-15T00:09:31.715Z,6.07
2019-05-15T00:12:02.876Z,5.77
2019-05-15T00:14:33.874Z,5.13
2019-05-15T00:17:04.879Z,4.87
2019-05-15T00:19:36.004Z,5.37
2019-05-15T00:22:08.630Z,4.67
2019-05-15T00:24:39.867Z,5.35
2019-05-15T00:27:10.961Z,4.93
2019-05-15T00:29:42.252Z,4.37
2019-05-15T00:32:13.448Z,5.15
2019-05-15T00:34:44.537Z,5.10
2019-05-15T00:37:18.072Z,4.40
2019-05-15T00:39:49.044Z,4.17
2019-05-15T00:42:20.121Z,4.35
2019-05-15T00:44:51.060Z,4.70
2019-05-15T00:47:22.122Z,4.57
2019-05-15T00:49:53.594Z,3.73
2019-05-15T00:52:24.577Z,4.00
2019-05-15T00:54:55.660Z,4.47
2019-05-15T00:57:28.355Z,3.70
2019-05-15T00:59:59.338Z,3.80
2019-05-15T01:02:30.421Z,4.30
2019-05-15T01:05:01.361Z,4.03
2019-05-15T01:07:32.465Z,4.10
2019-05-15T01:10:04.131Z,4.42
2019-05-15T01:12:35.349Z,4.08
2019-05-15T01:15:09.201Z,3.83
2019-05-15T01:17:40.723Z,3.97
2019-05-15T01:20:12.347Z,3.93
2019-05-15T01:22:43.393Z,4.87
2019-05-15T01:25:14.477Z,5.10
2019-05-15T01:27:45.729Z,4.62
2019-05-15T01:30:17.964Z,4.55
2019-05-15T01:32:49.439Z,5.63
2019-05-15T01:35:20.652Z,6.30
2019-05-15T01:37:51.923Z,6.13
2019-05-15T01:40:23.159Z,7.03
2019-05-15T01:42:54.015Z,5.37
2019-05-15T01:45:24.975Z,7.50
2019-05-15T01:47:58.495Z,7.20
2019-05-15T01:50:29.322Z,7.63
2019-05-15T01:53:00.335Z,5.97
2019-05-15T01:55:31.337Z,6.37
2019-05-15T01:58:02.489Z,5.80
2019-05-15T02:00:33.629Z,4.87
2019-05-15T02:03:04.764Z,5.17
2019-05-15T02:05:36.151Z,5.35
2019-05-15T02:08:08.228Z,5.47
2019-05-15T02:10:39.632Z,4.90
2019-05-15T02:13:10.739Z,5.13
2019-05-15T02:15:41.781Z,4.90
2019-05-15T02:18:12.823Z,5.27
2019-05-15T02:20:43.867Z,5.37
2019-05-15T02:23:14.937Z,4.90
2019-05-15T02:25:48.023Z,4.87
2019-05-15T02:28:18.852Z,4.00
2019-05-15T02:30:50.636Z,4.70
2019-05-15T02:33:21.743Z,5.20
2019-05-15T02:35:53.033Z,4.90
2019-05-15T02:38:29.224Z,5.47
2019-05-15T02:40:59.379Z,5.73
2019-05-15T02:43:30.733Z,4.50
2019-05-15T02:46:01.982Z,4.42
2019-05-15T02:48:32.965Z,5.43
2019-05-15T02:51:04.165Z,4.97
2019-05-15T02:53:35.457Z,5.42
2019-05-15T02:56:09.305Z,5.60
2019-05-15T02:58:40.035Z,5.37
2019-05-15T03:01:11.341Z,5.23
2019-05-15T03:03:42.535Z,6.33
2019-05-15T03:06:13.562Z,5.30
2019-05-15T03:08:44.836Z,6.27
2019-05-15T03:11:18.763Z,5.97
2019-05-15T03:13:50.495Z,4.87
2019-05-15T03:16:21.519Z,5.00
2019-05-15T03:18:55.749Z,7.55
2019-05-15T03:21:29.297Z,5.90
2019-05-15T03:23:59.643Z,7.13
2019-05-15T03:26:30.879Z,6.87
2019-05-15T03:29:02.009Z,7.53
2019-05-15T03:31:50.633Z,7.93
2019-05-15T03:34:18.562Z,7.57
2019-05-15T03:36:44.399Z,9.67
2019-05-15T03:39:11.646Z,8.17
2019-05-15T03:41:42.617Z,7.73
2019-05-15T03:44:13.965Z,6.10
2019-05-15T03:46:45.025Z,6.37
2019-05-15T03:49:16.107Z,5.47
2019-05-15T03:51:49.910Z,6.33
2019-05-15T03:54:19.805Z,5.87
2019-05-15T03:56:50.700Z,5.73
2019-05-15T03:59:21.853Z,5.47
2019-05-15T04:01:53.009Z,7.70
2019-05-15T04:04:24.314Z,6.60
2019-05-15T04:06:55.525Z,6.47
2019-05-15T04:09:29.472Z,6.35
2019-05-15T04:12:00.131Z,7.23
2019-05-15T04:14:32.856Z,8.83
2019-05-15T04:17:03.948Z,8.80
2019-05-15T04:19:38.884Z,8.83
2019-05-15T04:22:09.303Z,10.90
2019-05-15T04:24:41.384Z,8.80
2019-05-15T04:27:13.356Z,8.35
2019-05-15T04:29:44.383Z,6.20
2019-05-15T04:32:15.466Z,7.20
2019-05-15T04:34:48.951Z,8.43
2019-05-15T04:37:19.209Z,9.33
2019-05-15T04:39:50.080Z,8.05
2019-05-15T04:42:21.019Z,9.10
2019-05-15T04:44:52.010Z,9.40
2019-05-15T04:47:23.237Z,9.17
2019-05-15T04:49:54.175Z,8.50
2019-05-15T04:52:25.213Z,8.40
2019-05-15T04:54:56.024Z,10.25
2019-05-15T04:57:33.005Z,13.48
2019-05-15T05:00:00.285Z,9.13
2019-05-15T05:02:32.386Z,9.63
2019-05-15T05:05:04.714Z,9.98
2019-05-15T05:07:38.966Z,10.05
2019-05-15T05:10:10.317Z,10.93
2019-05-15T05:12:42.548Z,10.40
2019-05-15T05:15:13.989Z,10.60
2019-05-15T05:17:45.345Z,10.87
2019-05-15T05:20:17.917Z,11.20
2019-05-15T05:22:49.181Z,12.45
2019-05-15T05:25:20.170Z,10.57
2019-05-15T05:27:51.620Z,11.47
2019-05-15T05:30:22.819Z,14.40
2019-05-15T05:32:53.942Z,13.67
2019-05-15T05:35:25.009Z,13.88
2019-05-15T05:37:58.223Z,13.30
2019-05-15T05:40:29.370Z,13.08
2019-05-15T05:43:00.791Z,12.23
2019-05-15T05:45:31.915Z,11.20
2019-05-15T05:48:03.090Z,11.20
2019-05-15T05:50:44.815Z,13.10
2019-05-15T05:53:15.945Z,14.05
2019-05-15T05:55:49.174Z,12.47
2019-05-15T05:58:20.073Z,12.43
2019-05-15T06:00:52.124Z,10.78
2019-05-15T06:03:23.410Z,11.97
2019-05-15T06:05:54.437Z,14.33
2019-05-15T06:08:28.100Z,12.33
2019-05-15T06:10:58.710Z,12.63
2019-05-15T06:13:29.945Z,11.43
2019-05-15T06:16:01.067Z,11.53
2019-05-15T06:18:32.071Z,13.13
2019-05-15T06:21:03.147Z,13.18
2019-05-15T06:23:35.883Z,13.30
2019-05-15T06:26:09.604Z,13.18
2019-05-15T06:28:39.860Z,13.22
2019-05-15T06:31:10.900Z,13.38
2019-05-15T06:33:41.962Z,13.55
2019-05-15T06:36:13.210Z,15.45
2019-05-15T06:38:44.241Z,13.97
2019-05-15T06:41:17.932Z,14.03
2019-05-15T06:43:48.502Z,13.93
2019-05-15T06:46:19.786Z,13.72
2019-05-15T06:48:50.773Z,14.13
2019-05-15T06:51:21.771Z,12.63
2019-05-15T06:53:53.037Z,13.32
2019-05-15T06:56:24.205Z,11.65
2019-05-15T06:58:55.183Z,12.78
2019-05-15T07:01:26.357Z,12.03
2019-05-15T07:03:59.058Z,11.38
2019-05-15T07:06:30.537Z,9.98
2019-05-15T07:09:01.530Z,13.20
2019-05-15T07:11:32.903Z,13.00
2019-05-15T07:14:04.440Z,11.90
2019-05-15T07:16:35.361Z,13.28
2019-05-15T07:19:08.291Z,11.73
2019-05-15T07:21:39.313Z,10.93
2019-05-15T07:24:10.262Z,14.93
2019-05-15T07:26:41.374Z,15.45
2019-05-15T07:29:12.548Z,13.28
2019-05-15T07:31:43.891Z,16.02
2019-05-15T07:34:15.026Z,16.57
2019-05-15T07:36:49.221Z,13.78
2019-05-15T07:39:19.210Z,15.72
2019-05-15T07:41:50.132Z,13.20
2019-05-15T07:44:21.316Z,12.58
2019-05-15T07:46:52.224Z,13.03
2019-05-15T07:49:23.884Z,13.98
2019-05-15T07:51:54.972Z,11.22
2019-05-15T07:54:26.196Z,11.93
2019-05-15T07:56:58.214Z,13.48
2019-05-15T07:59:34.324Z,10.88
2019-05-15T08:02:05.440Z,11.97
2019-05-15T08:04:38.064Z,12.50
2019-05-15T08:07:09.497Z,12.58
2019-05-15T08:09:40.478Z,12.10
2019-05-15T08:12:12.141Z,11.95
2019-05-15T08:14:43.362Z,12.55
2019-05-15T08:17:18.224Z,10.58
2019-05-15T08:19:48.738Z,10.60
2019-05-15T08:22:19.844Z,10.32
2019-05-15T08:24:51.011Z,11.95
2019-05-15T08:27:23.742Z,13.20
2019-05-15T08:29:55.078Z,12.90
2019-05-15T08:32:28.004Z,12.88
2019-05-15T08:34:59.254Z,13.50
2019-05-15T08:37:31.001Z,13.88
2019-05-15T08:40:01.950Z,14.33
2019-05-15T08:42:34.442Z,12.13
2019-05-15T08:45:09.223Z,14.55
2019-05-15T08:47:40.412Z,14.25
2019-05-15T08:50:12.272Z,15.32
2019-05-15T08:52:44.422Z,13.98
2019-05-15T08:55:15.887Z,13.80
2019-05-15T08:57:54.050Z,15.03
2019-05-15T09:00:19.938Z,14.75
2019-05-15T09:02:51.159Z,16.07
2019-05-15T09:05:22.684Z,19.48
2019-05-15T09:07:53.940Z,15.18
2019-05-15T09:10:25.122Z,13.58
2019-05-15T09:12:58.611Z,11.93
2019-05-15T09:15:29.513Z,11.40
2019-05-15T09:18:14.725Z,9.95
2019-05-15T09:20:33.439Z,10.30
2019-05-15T09:23:04.661Z,11.03
2019-05-15T09:25:35.831Z,10.05
2019-05-15T09:28:08.688Z,12.00
2019-05-15T09:30:39.650Z,13.05
2019-05-15T09:33:11.204Z,11.40
2019-05-15T09:35:42.738Z,11.80
2019-05-15T09:38:13.958Z,10.45
2019-05-15T09:40:46.585Z,11.73
2019-05-15T09:43:18.316Z,15.05
2019-05-15T09:45:50.146Z,14.75
2019-05-15T09:48:21.214Z,10.78
2019-05-15T09:50:52.191Z,11.80
2019-05-15T09:53:24.972Z,13.72
2019-05-15T09:55:55.999Z,11.93
2019-05-15T09:58:30.047Z,12.93
2019-05-15T10:01:00.832Z,14.00
2019-05-15T10:03:32.272Z,13.48
2019-05-15T10:06:03.482Z,14.28
2019-05-15T10:08:34.596Z,19.73
2019-05-15T10:11:08.866Z,16.00
2019-05-15T10:13:38.911Z,15.72
2019-05-15T10:16:10.093Z,14.70
2019-05-15T10:18:41.359Z,17.62
2019-05-15T10:21:12.668Z,15.13
2019-05-15T10:23:43.901Z,15.25
2019-05-15T10:26:15.059Z,16.00
2019-05-15T10:28:49.025Z,15.10
2019-05-15T10:31:19.710Z,14.15
2019-05-15T10:33:52.463Z,12.50
2019-05-15T10:36:23.739Z,12.43
2019-05-15T10:38:54.915Z,11.05
2019-05-15T10:41:28.152Z,11.18
2019-05-15T10:44:00.298Z,11.10
2019-05-15T10:46:31.729Z,10.50
2019-05-15T10:49:02.763Z,10.23
2019-05-15T10:51:33.873Z,12.20
2019-05-15T10:54:05.194Z,10.98
2019-05-15T10:56:38.374Z,10.45
2019-05-15T10:59:09.313Z,10.03
2019-05-15T11:01:40.547Z,11.00
2019-05-15T11:04:11.843Z,11.53
2019-05-15T11:06:43.111Z,10.13
2019-05-15T11:09:14.084Z,12.50
2019-05-15T11:11:45.020Z,12.43
2019-05-15T11:14:18.273Z,10.65
2019-05-15T11:16:49.351Z,12.00
2019-05-15T11:19:20.389Z,10.90
2019-05-15T11:21:51.554Z,11.38
2019-05-15T11:24:22.853Z,15.63
2019-05-15T11:26:56.189Z,16.97
2019-05-15T11:29:27.039Z,15.32
2019-05-15T11:31:58.265Z,19.23
2019-05-15T11:34:29.427Z,16.57
2019-05-15T11:37:00.785Z,16.23
2019-05-15T11:39:32.119Z,17.45
2019-05-15T11:42:03.235Z,21.73
2019-05-15T11:44:34.263Z,19.95
2019-05-15T11:47:05.579Z,17.12
2019-05-15T11:49:38.396Z,21.73
2019-05-15T11:52:09.614Z,21.12
2019-05-15T11:54:40.722Z,20.52
2019-05-15T11:57:12.073Z,17.80
2019-05-15T11:59:45.597Z,21.93
2019-05-15T12:02:18.621Z,22.73
2019-05-15T12:04:50.349Z,23.52
2019-05-15T12:07:21.509Z,19.60
2019-05-15T12:09:53.740Z,20.00
2019-05-15T12:12:28.752Z,21.68
2019-05-15T12:14:57.744Z,20.88
2019-05-15T12:17:28.944Z,19.60
2019-05-15T12:20:05.791Z,17.77
2019-05-15T12:22:33.005Z,16.65
2019-05-15T12:25:05.178Z,19.65
2019-05-15T12:27:36.079Z,18.62
2019-05-15T12:30:15.318Z,17.77
2019-05-15T12:32:49.227Z,18.25
2019-05-15T12:35:20.375Z,18.27
2019-05-15T12:37:51.795Z,18.90
2019-05-15T13:00:45.423Z,21.10
2019-05-15T13:03:18.234Z,18.57
2019-05-15T13:05:49.563Z,20.37
2019-05-15T13:08:20.686Z,19.25
2019-05-15T13:10:51.742Z,20.05
2019-05-15T13:13:23.326Z,25.25
2019-05-15T13:15:54.520Z,28.12
2019-05-15T13:18:25.595Z,32.53
2019-05-15T13:20:59.516Z,26.57
2019-05-15T13:23:30.184Z,29.67
2019-05-15T13:26:01.324Z,28.17
2019-05-15T13:28:34.504Z,27.48
2019-05-15T13:31:05.569Z,25.52
2019-05-15T13:33:38.443Z,26.27
2019-05-15T13:36:09.567Z,26.07
2019-05-15T13:38:40.830Z,29.05
2019-05-15T13:41:12.046Z,29.23
2019-05-15T13:43:43.263Z,27.27
2019-05-15T13:46:14.684Z,25.60
2019-05-15T13:48:45.950Z,26.70
2019-05-15T13:51:18.261Z,25.50
2019-05-15T13:53:49.350Z,28.47
2019-05-15T13:56:21.964Z,25.25
2019-05-15T13:58:53.238Z,29.30
2019-05-15T14:01:24.628Z,29.12
2019-05-15T14:03:55.639Z,26.65
2019-05-15T14:06:28.686Z,25.60
2019-05-15T14:08:59.356Z,23.35
2019-05-15T14:11:31.565Z,23.18
2019-05-15T14:14:02.774Z,23.98
2019-05-15T14:16:33.911Z,23.45
2019-05-15T14:19:05.119Z,26.65
2019-05-15T14:21:37.961Z,29.05
2019-05-15T14:24:09.421Z,23.20
2019-05-15T14:26:40.458Z,22.55
2019-05-15T14:29:11.917Z,23.18
2019-05-15T14:31:42.982Z,28.45
2019-05-15T14:34:14.264Z,27.93
2019-05-15T14:36:45.303Z,28.83
2019-05-15T14:39:16.391Z,25.90
2019-05-15T14:41:49.182Z,23.30
2019-05-15T14:44:21.735Z,24.60
2019-05-15T14:46:53.018Z,25.65
2019-05-15T14:49:24.214Z,26.50
2019-05-15T14:52:07.678Z,21.05
2019-05-15T14:54:29.016Z,25.52
2019-05-15T14:57:00.239Z,21.48
2019-05-15T14:59:31.134Z,23.32
2019-05-15T15:02:02.714Z,21.33
2019-05-15T15:04:33.613Z,22.45
2019-05-15T15:07:04.867Z,20.65
2019-05-15T15:09:36.022Z,23.10
2019-05-15T15:12:08.200Z,23.00
2019-05-15T15:14:39.594Z,18.60
2019-05-15T15:17:10.921Z,21.93
2019-05-15T15:19:41.980Z,24.40
2019-05-15T15:22:13.235Z,24.05
2019-05-15T15:24:44.389Z,23.30
2019-05-15T15:27:15.947Z,22.80
2019-05-15T15:29:48.299Z,21.30
2019-05-15T15:32:19.527Z,23.07
2019-05-15T15:34:50.635Z,23.15
2019-05-15T15:37:21.815Z,22.05
2019-05-15T15:39:53.252Z,23.27
2019-05-15T15:42:24.468Z,23.40
2019-05-15T15:44:57.958Z,22.17
2019-05-15T15:47:28.332Z,22.45
2019-05-15T15:49:59.326Z,22.70
2019-05-15T15:52:30.237Z,23.85
2019-05-15T15:55:01.294Z,24.87
2019-05-15T15:57:33.210Z,26.10
2019-05-15T16:00:10.192Z,24.27
2019-05-15T16:02:41.429Z,21.68
2019-05-15T16:05:12.948Z,20.15
2019-05-15T16:07:43.904Z,20.25
2019-05-15T16:10:15.051Z,20.75
2019-05-15T16:12:46.111Z,21.52
2019-05-15T16:15:17.992Z,21.97
2019-05-15T16:17:49.205Z,22.82
2019-05-15T16:20:21.162Z,23.80
2019-05-15T16:22:52.294Z,30.25
2019-05-15T16:25:23.378Z,28.65
2019-05-15T16:27:54.764Z,29.48
2019-05-15T16:30:28.052Z,25.20
2019-05-15T16:32:58.676Z,24.27
2019-05-15T16:35:29.951Z,20.97
2019-05-15T16:38:01.161Z,21.57
2019-05-15T16:40:32.663Z,21.87
2019-05-15T16:43:04.322Z,23.22
2019-05-15T16:45:38.423Z,25.85
2019-05-15T16:48:09.540Z,25.65
2019-05-15T16:50:40.786Z,23.77
2019-05-15T16:53:12.176Z,25.97
2019-05-15T16:55:43.437Z,31.62
2019-05-15T16:58:14.879Z,26.35
2019-05-15T17:00:46.319Z,26.15
2019-05-15T17:03:18.420Z,41.40
2019-05-15T17:05:49.917Z,26.00
2019-05-15T17:08:21.135Z,32.40
2019-05-15T17:10:52.198Z,30.82
2019-05-15T17:13:23.480Z,28.45
2019-05-15T17:15:54.559Z,28.27
2019-05-15T17:18:25.761Z,26.42
2019-05-15T17:20:58.853Z,28.23
2019-05-15T17:23:29.612Z,28.00
2019-05-15T17:26:01.297Z,24.47
2019-05-15T17:28:32.415Z,22.05
2019-05-15T17:31:03.539Z,24.30
2019-05-15T17:33:34.611Z,27.07
2019-05-15T17:36:05.657Z,25.27
2019-05-15T17:38:38.125Z,28.65
2019-05-15T17:41:10.772Z,30.35
2019-05-15T17:43:42.971Z,36.13
2019-05-15T17:46:14.097Z,41.68
2019-05-15T17:48:53.950Z,37.42
2019-05-15T17:51:18.317Z,39.65
2019-05-15T17:53:49.497Z,36.58
2019-05-15T17:56:20.627Z,40.05
2019-05-15T17:58:51.695Z,36.90
2019-05-15T18:01:22.739Z,33.83
2019-05-15T18:03:53.784Z,35.52
2019-05-15T18:06:25.044Z,37.90
2019-05-15T18:08:56.185Z,36.13
2019-05-15T18:11:27.839Z,32.00
2019-05-15T18:13:59.335Z,33.92
2019-05-15T18:16:30.426Z,33.67
2019-05-15T18:19:03.471Z,33.98
2019-05-15T18:21:35.121Z,34.70
2019-05-15T18:24:09.291Z,46.37
2019-05-15T18:26:39.970Z,47.85
2019-05-15T18:29:11.218Z,47.80
2019-05-15T18:31:42.592Z,47.23
2019-05-15T18:34:13.834Z,37.42
2019-05-15T18:36:44.838Z,39.75
2019-05-15T18:39:15.970Z,35.85
2019-05-15T18:41:48.531Z,40.75
2019-05-15T18:44:20.873Z,41.05
2019-05-15T18:46:51.911Z,46.58
2019-05-15T18:49:22.865Z,40.67
2019-05-15T18:51:53.962Z,39.33
2019-05-15T18:54:25.050Z,37.42
2019-05-15T18:56:58.384Z,37.80
2019-05-15T18:59:29.020Z,40.43
2019-05-15T19:02:00.283Z,35.95
2019-05-15T19:04:31.528Z,34.78
2019-05-15T19:07:02.657Z,33.55
2019-05-15T19:09:33.754Z,30.92
2019-05-15T19:12:05.414Z,30.37
2019-05-15T19:14:39.406Z,32.35
2019-05-15T19:17:09.530Z,33.25
2019-05-15T19:19:40.660Z,40.45
2019-05-15T19:22:12.060Z,37.67
2019-05-15T19:24:43.329Z,33.05
2019-05-15T19:27:14.817Z,34.03
2019-05-15T19:29:48.006Z,33.20
2019-05-15T19:32:18.894Z,33.75
2019-05-15T19:34:49.791Z,35.58
2019-05-15T19:37:21.024Z,41.55
2019-05-15T19:39:52.072Z,44.05
2019-05-15T19:42:23.229Z,42.48
2019-05-15T19:44:54.499Z,38.75
2019-05-15T19:47:25.586Z,39.63
2019-05-15T19:49:57.817Z,35.30
2019-05-15T19:52:28.923Z,35.38
2019-05-15T19:55:00.364Z,37.67
2019-05-15T19:57:31.350Z,32.45
2019-05-15T20:00:03.020Z,34.15
2019-05-15T20:02:34.662Z,36.60
2019-05-15T20:05:09.235Z,41.35
2019-05-15T20:07:40.608Z,39.80
2019-05-15T20:10:12.558Z,39.38
2019-05-15T20:12:43.598Z,38.80
2019-05-15T20:15:15.747Z,33.00
2019-05-15T20:17:47.855Z,30.75
2019-05-15T20:20:20.342Z,31.35
2019-05-15T20:22:51.685Z,39.63
2019-05-15T20:25:23.270Z,35.43
2019-05-15T20:27:54.330Z,39.85
2019-05-15T20:30:28.428Z,38.73
2019-05-15T20:32:58.990Z,39.55
2019-05-15T20:35:30.077Z,35.00
2019-05-15T20:38:01.264Z,32.65
2019-05-15T20:40:32.404Z,31.40
2019-05-15T20:43:03.658Z,28.12
2019-05-15T20:45:35.878Z,27.22
2019-05-15T20:48:08.962Z,31.90
2019-05-15T20:50:40.361Z,32.05
2019-05-15T20:53:11.585Z,29.98
2019-05-15T20:55:43.030Z,27.62
2019-05-15T20:58:14.201Z,31.90
2019-05-15T21:00:46.030Z,31.80
2019-05-15T21:03:17.910Z,29.85
2019-05-15T21:05:49.319Z,28.47
2019-05-15T21:08:20.418Z,32.63
2019-05-15T21:10:51.795Z,34.03
2019-05-15T21:13:22.864Z,34.80
2019-05-15T21:15:54.025Z,34.88
2019-05-15T21:18:25.268Z,30.72
2019-05-15T21:20:56.359Z,29.90
2019-05-15T21:23:28.583Z,31.80
2019-05-15T21:25:59.783Z,27.27
2019-05-15T21:28:30.869Z,30.05
2019-05-15T21:31:02.045Z,29.37
2019-05-15T21:33:33.752Z,27.48
2019-05-15T21:36:04.880Z,30.17
2019-05-15T21:38:35.951Z,29.63
2019-05-15T21:41:08.002Z,32.03
2019-05-15T21:43:39.204Z,28.12
2019-05-15T21:46:10.511Z,29.37
2019-05-15T21:48:41.662Z,31.87
2019-05-15T21:51:13.503Z,35.63
2019-05-15T21:53:44.553Z,37.48
2019-05-15T21:56:16.007Z,36.45
2019-05-15T21:58:48.308Z,33.05
2019-05-15T22:01:19.860Z,36.38
2019-05-15T22:03:52.001Z,32.40
2019-05-15T22:06:23.068Z,35.95
2019-05-15T22:08:54.251Z,31.85
2019-05-15T22:11:28.903Z,29.63
2019-05-15T22:13:58.980Z,33.65
2019-05-15T22:16:31.681Z,31.23
2019-05-15T22:19:02.871Z,29.00
2019-05-15T22:21:34.855Z,28.40
2019-05-15T22:24:08.246Z,27.17
2019-05-15T22:26:39.174Z,27.27
2019-05-15T22:29:10.701Z,25.70
2019-05-15T22:31:42.861Z,27.15
2019-05-15T22:34:14.296Z,28.52
2019-05-15T22:36:45.357Z,30.68
2019-05-15T22:39:18.802Z,27.80
2019-05-15T22:41:49.434Z,28.87
2019-05-15T22:44:20.655Z,26.62
2019-05-15T22:46:52.232Z,25.57
2019-05-15T22:49:23.338Z,27.82
2019-05-15T22:51:54.631Z,29.37
2019-05-15T22:54:27.738Z,29.18
2019-05-15T22:56:58.793Z,28.55
2019-05-15T22:59:29.939Z,26.57
2019-05-15T23:02:01.416Z,25.92
2019-05-15T23:04:32.467Z,26.68
2019-05-15T23:07:03.719Z,25.80
2019-05-15T23:09:35.125Z,23.92
2019-05-15T23:12:11.044Z,25.32
2019-05-15T23:14:39.604Z,25.17
2019-05-15T23:17:10.700Z,24.92
2019-05-15T23:19:41.926Z,19.07
2019-05-15T23:22:13.003Z,22.27
2019-05-15T23:24:44.260Z,22.60
2019-05-15T23:27:15.340Z,22.65
2019-05-15T23:29:48.968Z,19.17
2019-05-15T23:32:19.382Z,20.88
2019-05-15T23:34:50.338Z,21.43
2019-05-15T23:37:21.440Z,21.65
2019-05-15T23:39:52.421Z,19.85
2019-05-15T23:42:23.664Z,24.82
2019-05-15T23:44:55.205Z,20.80
2019-05-15T23:47:28.492Z,23.90
2019-05-15T23:49:58.912Z,21.70
2019-05-15T23:52:29.814Z,21.52
2019-05-15T23:55:00.758Z,21.77
2019-05-15T23:57:31.998Z,19.77
